sensor_id;sensor_type;location;lat;lon;timestamp;pressure;altitude;pressure_sealevel;temperature;humidity
82668;BME280;72691;51.374;-0.176;2023-12-20T00:02:04;101889.56;;;4.37;61.74
82668;BME280;72691;51.374;-0.176;2023-12-20T00:04:28;101892.77;;;4.47;61.51
82668;BME280;72691;51.374;-0.176;2023-12-20T00:06:53;101892.45;;;4.73;61.89
82668;BME280;72691;51.374;-0.176;2023-12-20T00:09:19;101893.35;;;3.79;63.55
82668;BME280;72691;51.374;-0.176;2023-12-20T00:11:45;101895.01;;;3.45;65.11
82668;BME280;72691;51.374;-0.176;2023-12-20T00:14:10;101895.42;;;4.01;62.99
82668;BME280;72691;51.374;-0.176;2023-12-20T00:16:35;101900.09;;;4.00;63.94
82668;BME280;72691;51.374;-0.176;2023-12-20T00:19:01;101899.34;;;3.95;63.14
82668;BME280;72691;51.374;-0.176;2023-12-20T00:21:26;101894.89;;;3.82;63.79
82668;BME280;72691;51.374;-0.176;2023-12-20T00:23:52;101889.73;;;3.90;64.27
82668;BME280;72691;51.374;-0.176;2023-12-20T00:26:18;101886.52;;;3.90;64.50
82668;BME280;72691;51.374;-0.176;2023-12-20T00:28:42;101889.47;;;3.99;62.70
82668;BME280;72691;51.374;-0.176;2023-12-20T00:31:13;101882.98;;;4.73;61.74
82668;BME280;72691;51.374;-0.176;2023-12-20T00:33:34;101884.41;;;4.49;61.31
82668;BME280;72691;51.374;-0.176;2023-12-20T00:36:05;101889.78;;;4.66;60.77
82668;BME280;72691;51.374;-0.176;2023-12-20T00:38:25;101891.95;;;4.57;60.78
82668;BME280;72691;51.374;-0.176;2023-12-20T00:40:50;101893.94;;;4.91;60.56
82668;BME280;72691;51.374;-0.176;2023-12-20T00:43:15;101904.50;;;4.49;61.06
82668;BME280;72691;51.374;-0.176;2023-12-20T00:45:41;101902.91;;;4.79;61.81
82668;BME280;72691;51.374;-0.176;2023-12-20T00:48:06;101900.10;;;4.33;62.90
82668;BME280;72691;51.374;-0.176;2023-12-20T00:50:32;101890.24;;;4.44;61.50
82668;BME280;72691;51.374;-0.176;2023-12-20T00:52:57;101889.75;;;5.29;59.60
82668;BME280;72691;51.374;-0.176;2023-12-20T00:55:28;101882.88;;;5.07;59.96
82668;BME280;72691;51.374;-0.176;2023-12-20T00:57:48;101884.09;;;4.49;61.82
82668;BME280;72691;51.374;-0.176;2023-12-20T01:00:14;101876.03;;;4.43;62.16
82668;BME280;72691;51.374;-0.176;2023-12-20T01:02:39;101869.80;;;4.56;62.23
82668;BME280;72691;51.374;-0.176;2023-12-20T01:05:05;101862.66;;;4.15;61.99
82668;BME280;72691;51.374;-0.176;2023-12-20T01:07:30;101857.16;;;4.12;62.71
82668;BME280;72691;51.374;-0.176;2023-12-20T01:09:55;101860.35;;;4.57;62.62
82668;BME280;72691;51.374;-0.176;2023-12-20T01:12:21;101863.55;;;4.10;62.30
82668;BME280;72691;51.374;-0.176;2023-12-20T01:14:46;101857.41;;;4.06;62.71
82668;BME280;72691;51.374;-0.176;2023-12-20T01:17:12;101858.13;;;5.06;60.27
82668;BME280;72691;51.374;-0.176;2023-12-20T01:19:37;101858.78;;;5.96;58.27
82668;BME280;72691;51.374;-0.176;2023-12-20T01:22:03;101858.55;;;4.98;60.00
82668;BME280;72691;51.374;-0.176;2023-12-20T01:24:27;101844.45;;;6.21;57.21
82668;BME280;72691;51.374;-0.176;2023-12-20T01:26:53;101838.61;;;5.71;57.98
82668;BME280;72691;51.374;-0.176;2023-12-20T01:29:18;101846.20;;;5.44;58.22
82668;BME280;72691;51.374;-0.176;2023-12-20T01:31:44;101848.81;;;6.02;57.40
82668;BME280;72691;51.374;-0.176;2023-12-20T01:34:09;101843.93;;;5.34;58.38
82668;BME280;72691;51.374;-0.176;2023-12-20T01:36:35;101844.87;;;5.50;58.02
82668;BME280;72691;51.374;-0.176;2023-12-20T01:39:00;101844.91;;;5.61;58.61
82668;BME280;72691;51.374;-0.176;2023-12-20T01:41:26;101845.42;;;5.63;58.60
82668;BME280;72691;51.374;-0.176;2023-12-20T01:43:51;101844.17;;;5.90;57.46
82668;BME280;72691;51.374;-0.176;2023-12-20T01:46:17;101852.72;;;5.29;58.52
82668;BME280;72691;51.374;-0.176;2023-12-20T01:48:42;101857.56;;;5.64;59.07
82668;BME280;72691;51.374;-0.176;2023-12-20T01:51:07;101863.51;;;4.85;60.11
82668;BME280;72691;51.374;-0.176;2023-12-20T01:53:32;101861.47;;;5.82;57.74
82668;BME280;72691;51.374;-0.176;2023-12-20T01:56:04;101856.04;;;6.35;56.44
82668;BME280;72691;51.374;-0.176;2023-12-20T01:58:23;101856.49;;;5.59;58.47
82668;BME280;72691;51.374;-0.176;2023-12-20T02:00:49;101854.61;;;5.49;58.34
82668;BME280;72691;51.374;-0.176;2023-12-20T02:03:14;101851.78;;;5.67;58.05
82668;BME280;72691;51.374;-0.176;2023-12-20T02:05:40;101855.18;;;4.62;61.22
82668;BME280;72691;51.374;-0.176;2023-12-20T02:08:06;101847.10;;;5.03;60.64
82668;BME280;72691;51.374;-0.176;2023-12-20T02:10:36;101848.76;;;5.04;60.47
82668;BME280;72691;51.374;-0.176;2023-12-20T02:12:56;101842.76;;;5.51;59.21
82668;BME280;72691;51.374;-0.176;2023-12-20T02:15:21;101841.79;;;5.10;60.01
82668;BME280;72691;51.374;-0.176;2023-12-20T02:17:52;101841.77;;;6.02;58.15
82668;BME280;72691;51.374;-0.176;2023-12-20T02:20:13;101833.82;;;4.96;60.56
82668;BME280;72691;51.374;-0.176;2023-12-20T02:22:38;101826.87;;;5.11;60.42
82668;BME280;72691;51.374;-0.176;2023-12-20T02:25:04;101817.74;;;5.19;60.55
82668;BME280;72691;51.374;-0.176;2023-12-20T02:27:30;101817.14;;;5.17;60.60
82668;BME280;72691;51.374;-0.176;2023-12-20T02:29:55;101820.75;;;5.09;60.45
82668;BME280;72691;51.374;-0.176;2023-12-20T02:32:21;101825.45;;;4.51;62.38
82668;BME280;72691;51.374;-0.176;2023-12-20T02:34:47;101825.94;;;5.45;60.11
82668;BME280;72691;51.374;-0.176;2023-12-20T02:37:11;101832.93;;;5.21;60.32
82668;BME280;72691;51.374;-0.176;2023-12-20T02:39:36;101831.48;;;5.29;60.24
82668;BME280;72691;51.374;-0.176;2023-12-20T02:42:03;101830.51;;;5.20;59.46
82668;BME280;72691;51.374;-0.176;2023-12-20T02:44:32;101826.58;;;5.54;59.74
82668;BME280;72691;51.374;-0.176;2023-12-20T02:46:53;101822.47;;;5.40;59.09
82668;BME280;72691;51.374;-0.176;2023-12-20T02:49:18;101831.50;;;5.46;59.54
82668;BME280;72691;51.374;-0.176;2023-12-20T02:51:49;101831.71;;;5.58;59.06
82668;BME280;72691;51.374;-0.176;2023-12-20T02:54:09;101827.71;;;5.83;58.16
82668;BME280;72691;51.374;-0.176;2023-12-20T02:56:34;101830.60;;;5.80;57.99
82668;BME280;72691;51.374;-0.176;2023-12-20T02:59:00;101833.41;;;5.67;58.08
82668;BME280;72691;51.374;-0.176;2023-12-20T03:01:26;101834.21;;;6.94;55.77
82668;BME280;72691;51.374;-0.176;2023-12-20T03:03:51;101836.66;;;6.71;55.89
82668;BME280;72691;51.374;-0.176;2023-12-20T03:06:26;101828.76;;;7.17;54.94
82668;BME280;72691;51.374;-0.176;2023-12-20T03:08:42;101827.62;;;6.97;54.12
82668;BME280;72691;51.374;-0.176;2023-12-20T03:11:08;101830.09;;;7.47;53.75
82668;BME280;72691;51.374;-0.176;2023-12-20T03:13:32;101818.54;;;7.20;53.46
82668;BME280;72691;51.374;-0.176;2023-12-20T03:15:58;101810.40;;;7.33;53.10
82668;BME280;72691;51.374;-0.176;2023-12-20T03:18:23;101816.20;;;6.88;54.49
82668;BME280;72691;51.374;-0.176;2023-12-20T03:20:50;101816.73;;;7.16;53.90
82668;BME280;72691;51.374;-0.176;2023-12-20T03:23:14;101822.11;;;6.43;55.13
82668;BME280;72691;51.374;-0.176;2023-12-20T03:25:40;101819.27;;;6.28;55.45
82668;BME280;72691;51.374;-0.176;2023-12-20T03:28:05;101824.25;;;5.79;57.30
82668;BME280;72691;51.374;-0.176;2023-12-20T03:30:30;101819.95;;;5.99;57.11
82668;BME280;72691;51.374;-0.176;2023-12-20T03:32:56;101819.02;;;6.06;57.85
82668;BME280;72691;51.374;-0.176;2023-12-20T03:35:20;101813.81;;;5.39;58.39
82668;BME280;72691;51.374;-0.176;2023-12-20T03:37:46;101806.29;;;6.03;58.20
82668;BME280;72691;51.374;-0.176;2023-12-20T03:40:11;101808.69;;;4.69;60.66
82668;BME280;72691;51.374;-0.176;2023-12-20T03:42:37;101807.33;;;5.72;59.05
82668;BME280;72691;51.374;-0.176;2023-12-20T03:45:03;101806.55;;;5.67;57.80
82668;BME280;72691;51.374;-0.176;2023-12-20T03:47:28;101812.99;;;5.04;59.17
82668;BME280;72691;51.374;-0.176;2023-12-20T03:49:53;101813.42;;;5.83;58.71
82668;BME280;72691;51.374;-0.176;2023-12-20T03:52:19;101817.03;;;5.55;59.00
82668;BME280;72691;51.374;-0.176;2023-12-20T03:54:44;101825.60;;;5.51;58.16
82668;BME280;72691;51.374;-0.176;2023-12-20T03:57:10;101832.56;;;4.95;59.95
82668;BME280;72691;51.374;-0.176;2023-12-20T03:59:35;101834.34;;;5.23;59.84
82668;BME280;72691;51.374;-0.176;2023-12-20T04:02:01;101841.20;;;5.01;60.56
82668;BME280;72691;51.374;-0.176;2023-12-20T04:04:26;101839.36;;;4.51;61.79
82668;BME280;72691;51.374;-0.176;2023-12-20T04:06:51;101841.01;;;5.08;61.11
82668;BME280;72691;51.374;-0.176;2023-12-20T04:09:17;101839.64;;;5.08;59.93
82668;BME280;72691;51.374;-0.176;2023-12-20T04:11:43;101836.70;;;5.42;59.71
82668;BME280;72691;51.374;-0.176;2023-12-20T04:14:08;101829.57;;;4.69;61.16
82668;BME280;72691;51.374;-0.176;2023-12-20T04:16:34;101826.53;;;4.91;60.94
82668;BME280;72691;51.374;-0.176;2023-12-20T04:19:00;101831.26;;;4.99;60.39
82668;BME280;72691;51.374;-0.176;2023-12-20T04:21:25;101825.80;;;5.33;60.27
82668;BME280;72691;51.374;-0.176;2023-12-20T04:23:50;101824.73;;;5.46;60.02
82668;BME280;72691;51.374;-0.176;2023-12-20T04:26:15;101820.19;;;4.76;61.32
82668;BME280;72691;51.374;-0.176;2023-12-20T04:28:41;101815.42;;;4.46;62.41
82668;BME280;72691;51.374;-0.176;2023-12-20T04:31:06;101813.43;;;5.43;59.78
82668;BME280;72691;51.374;-0.176;2023-12-20T04:33:32;101816.89;;;4.94;60.92
82668;BME280;72691;51.374;-0.176;2023-12-20T04:35:57;101818.81;;;4.43;62.27
82668;BME280;72691;51.374;-0.176;2023-12-20T04:38:23;101815.77;;;4.80;62.64
82668;BME280;72691;51.374;-0.176;2023-12-20T04:40:48;101816.43;;;4.40;62.10
82668;BME280;72691;51.374;-0.176;2023-12-20T04:43:13;101819.37;;;4.60;62.60
82668;BME280;72691;51.374;-0.176;2023-12-20T04:45:38;101820.90;;;4.80;61.29
82668;BME280;72691;51.374;-0.176;2023-12-20T04:48:05;101816.58;;;4.77;61.67
82668;BME280;72691;51.374;-0.176;2023-12-20T04:50:29;101817.32;;;4.39;63.07
82668;BME280;72691;51.374;-0.176;2023-12-20T04:52:55;101807.49;;;4.71;62.48
82668;BME280;72691;51.374;-0.176;2023-12-20T04:55:20;101806.84;;;4.59;63.21
82668;BME280;72691;51.374;-0.176;2023-12-20T04:57:46;101798.79;;;4.69;62.04
82668;BME280;72691;51.374;-0.176;2023-12-20T05:00:12;101796.47;;;4.06;64.86
82668;BME280;72691;51.374;-0.176;2023-12-20T05:02:42;101796.35;;;4.27;64.14
82668;BME280;72691;51.374;-0.176;2023-12-20T05:05:02;101812.72;;;3.46;64.91
82668;BME280;72691;51.374;-0.176;2023-12-20T05:07:28;101809.01;;;4.30;64.01
82668;BME280;72691;51.374;-0.176;2023-12-20T05:09:53;101809.02;;;4.47;64.19
82668;BME280;72691;51.374;-0.176;2023-12-20T05:12:19;101814.84;;;4.17;64.39
82668;BME280;72691;51.374;-0.176;2023-12-20T05:14:44;101818.13;;;4.29;63.99
82668;BME280;72691;51.374;-0.176;2023-12-20T05:17:09;101821.83;;;4.18;64.26
82668;BME280;72691;51.374;-0.176;2023-12-20T05:19:35;101822.58;;;4.31;64.06
82668;BME280;72691;51.374;-0.176;2023-12-20T05:22:01;101823.00;;;4.09;63.36
82668;BME280;72691;51.374;-0.176;2023-12-20T05:24:25;101822.91;;;4.77;61.84
82668;BME280;72691;51.374;-0.176;2023-12-20T05:26:51;101819.46;;;4.60;62.13
82668;BME280;72691;51.374;-0.176;2023-12-20T05:29:17;101812.08;;;4.97;61.08
82668;BME280;72691;51.374;-0.176;2023-12-20T05:31:42;101809.12;;;4.79;61.66
82668;BME280;72691;51.374;-0.176;2023-12-20T05:34:07;101810.81;;;4.60;62.33
82668;BME280;72691;51.374;-0.176;2023-12-20T05:36:33;101810.75;;;4.46;63.15
82668;BME280;72691;51.374;-0.176;2023-12-20T05:38:58;101798.24;;;4.53;62.75
82668;BME280;72691;51.374;-0.176;2023-12-20T05:41:24;101789.30;;;5.04;60.89
82668;BME280;72691;51.374;-0.176;2023-12-20T05:43:49;101788.11;;;5.09;62.15
82668;BME280;72691;51.374;-0.176;2023-12-20T05:46:15;101790.69;;;4.82;62.03
82668;BME280;72691;51.374;-0.176;2023-12-20T05:48:41;101786.86;;;4.63;62.15
82668;BME280;72691;51.374;-0.176;2023-12-20T05:51:05;101785.44;;;4.88;61.92
82668;BME280;72691;51.374;-0.176;2023-12-20T05:53:31;101775.80;;;4.53;62.76
82668;BME280;72691;51.374;-0.176;2023-12-20T05:55:56;101770.00;;;4.82;61.83
82668;BME280;72691;51.374;-0.176;2023-12-20T05:58:21;101767.61;;;4.85;61.67
82668;BME280;72691;51.374;-0.176;2023-12-20T06:00:52;101765.20;;;4.92;61.18
82668;BME280;72691;51.374;-0.176;2023-12-20T06:03:12;101768.28;;;4.93;61.28
82668;BME280;72691;51.374;-0.176;2023-12-20T06:05:38;101767.21;;;4.62;62.04
82668;BME280;72691;51.374;-0.176;2023-12-20T06:08:04;101766.98;;;4.88;61.42
82668;BME280;72691;51.374;-0.176;2023-12-20T06:10:29;101762.99;;;4.66;62.88
82668;BME280;72691;51.374;-0.176;2023-12-20T06:12:54;101774.17;;;4.96;61.56
82668;BME280;72691;51.374;-0.176;2023-12-20T06:15:20;101772.70;;;5.38;60.54
82668;BME280;72691;51.374;-0.176;2023-12-20T06:17:45;101773.30;;;4.92;61.50
82668;BME280;72691;51.374;-0.176;2023-12-20T06:20:11;101780.14;;;4.50;62.70
82668;BME280;72691;51.374;-0.176;2023-12-20T06:22:36;101775.42;;;5.29;61.02
82668;BME280;72691;51.374;-0.176;2023-12-20T06:25:02;101776.14;;;4.94;61.73
82668;BME280;72691;51.374;-0.176;2023-12-20T06:27:27;101776.11;;;5.07;61.25
82668;BME280;72691;51.374;-0.176;2023-12-20T06:29:52;101779.77;;;4.84;61.84
82668;BME280;72691;51.374;-0.176;2023-12-20T06:32:18;101774.55;;;5.07;62.79
82668;BME280;72691;51.374;-0.176;2023-12-20T06:34:43;101776.61;;;5.20;61.58
82668;BME280;72691;51.374;-0.176;2023-12-20T06:37:09;101779.86;;;5.21;60.90
82668;BME280;72691;51.374;-0.176;2023-12-20T06:39:34;101779.83;;;5.35;60.34
82668;BME280;72691;51.374;-0.176;2023-12-20T06:42:00;101781.04;;;5.34;61.12
82668;BME280;72691;51.374;-0.176;2023-12-20T06:44:25;101776.32;;;6.09;59.41
82668;BME280;72691;51.374;-0.176;2023-12-20T06:46:50;101771.71;;;5.54;59.76
82668;BME280;72691;51.374;-0.176;2023-12-20T06:49:15;101777.45;;;5.64;59.93
82668;BME280;72691;51.374;-0.176;2023-12-20T06:51:40;101776.07;;;5.96;59.58
82668;BME280;72691;51.374;-0.176;2023-12-20T06:54:06;101777.93;;;5.57;59.68
82668;BME280;72691;51.374;-0.176;2023-12-20T06:56:31;101780.45;;;5.67;59.43
82668;BME280;72691;51.374;-0.176;2023-12-20T06:58:57;101777.56;;;5.14;61.44
82668;BME280;72691;51.374;-0.176;2023-12-20T07:01:22;101759.88;;;5.59;60.27
82668;BME280;72691;51.374;-0.176;2023-12-20T07:03:47;101757.97;;;5.31;61.24
82668;BME280;72691;51.374;-0.176;2023-12-20T07:06:12;101756.99;;;5.24;61.75
82668;BME280;72691;51.374;-0.176;2023-12-20T07:08:40;101752.29;;;5.24;61.87
82668;BME280;72691;51.374;-0.176;2023-12-20T07:11:03;101761.48;;;4.92;62.83
82668;BME280;72691;51.374;-0.176;2023-12-20T07:13:29;101760.38;;;5.12;62.73
82668;BME280;72691;51.374;-0.176;2023-12-20T07:15:55;101755.54;;;5.02;62.96
82668;BME280;72691;51.374;-0.176;2023-12-20T07:18:20;101756.62;;;4.70;63.20
82668;BME280;72691;51.374;-0.176;2023-12-20T07:20:45;101755.19;;;5.04;63.29
82668;BME280;72691;51.374;-0.176;2023-12-20T07:23:10;101752.06;;;5.01;64.08
82668;BME280;72691;51.374;-0.176;2023-12-20T07:25:36;101747.05;;;4.74;63.70
82668;BME280;72691;51.374;-0.176;2023-12-20T07:28:02;101746.16;;;5.28;62.53
82668;BME280;72691;51.374;-0.176;2023-12-20T07:30:27;101731.47;;;6.06;60.11
82668;BME280;72691;51.374;-0.176;2023-12-20T07:32:52;101734.51;;;5.65;61.06
82668;BME280;72691;51.374;-0.176;2023-12-20T07:35:17;101737.66;;;5.83;60.79
82668;BME280;72691;51.374;-0.176;2023-12-20T07:37:42;101737.36;;;5.74;61.04
82668;BME280;72691;51.374;-0.176;2023-12-20T07:40:08;101730.95;;;4.86;63.73
82668;BME280;72691;51.374;-0.176;2023-12-20T07:42:33;101731.43;;;5.59;62.35
82668;BME280;72691;51.374;-0.176;2023-12-20T07:44:59;101726.72;;;6.48;59.99
82668;BME280;72691;51.374;-0.176;2023-12-20T07:47:29;101726.92;;;6.18;59.70
82668;BME280;72691;51.374;-0.176;2023-12-20T07:49:50;101728.93;;;6.21;60.08
82668;BME280;72691;51.374;-0.176;2023-12-20T07:52:15;101735.22;;;6.16;60.66
82668;BME280;72691;51.374;-0.176;2023-12-20T07:54:41;101737.34;;;5.74;61.82
82668;BME280;72691;51.374;-0.176;2023-12-20T07:57:06;101736.20;;;6.21;60.16
82668;BME280;72691;51.374;-0.176;2023-12-20T07:59:32;101744.52;;;6.24;60.15
82668;BME280;72691;51.374;-0.176;2023-12-20T08:01:57;101737.91;;;6.21;60.51
82668;BME280;72691;51.374;-0.176;2023-12-20T08:04:22;101740.75;;;6.60;59.23
82668;BME280;72691;51.374;-0.176;2023-12-20T08:06:48;101751.46;;;6.73;58.84
82668;BME280;72691;51.374;-0.176;2023-12-20T08:09:13;101752.41;;;6.68;58.42
82668;BME280;72691;51.374;-0.176;2023-12-20T08:11:38;101749.85;;;6.72;58.37
82668;BME280;72691;51.374;-0.176;2023-12-20T08:14:05;101756.74;;;6.03;60.00
82668;BME280;72691;51.374;-0.176;2023-12-20T08:16:31;101756.75;;;6.58;60.16
82668;BME280;72691;51.374;-0.176;2023-12-20T08:18:55;101772.09;;;6.50;60.25
82668;BME280;72691;51.374;-0.176;2023-12-20T08:21:21;101757.16;;;6.03;61.47
82668;BME280;72691;51.374;-0.176;2023-12-20T08:23:46;101759.70;;;6.12;61.44
82668;BME280;72691;51.374;-0.176;2023-12-20T08:26:12;101760.84;;;6.85;60.02
82668;BME280;72691;51.374;-0.176;2023-12-20T08:28:37;101767.34;;;6.59;60.64
82668;BME280;72691;51.374;-0.176;2023-12-20T08:31:01;101769.90;;;6.28;60.17
82668;BME280;72691;51.374;-0.176;2023-12-20T08:33:27;101767.95;;;6.68;60.49
82668;BME280;72691;51.374;-0.176;2023-12-20T08:35:52;101774.94;;;6.05;61.65
82668;BME280;72691;51.374;-0.176;2023-12-20T08:38:17;101778.81;;;5.95;62.44
82668;BME280;72691;51.374;-0.176;2023-12-20T08:40:43;101776.55;;;6.22;63.09
82668;BME280;72691;51.374;-0.176;2023-12-20T08:43:08;101780.70;;;5.73;64.27
82668;BME280;72691;51.374;-0.176;2023-12-20T08:45:33;101783.25;;;5.50;64.09
82668;BME280;72691;51.374;-0.176;2023-12-20T08:47:59;101778.12;;;6.24;63.28
82668;BME280;72691;51.374;-0.176;2023-12-20T08:50:24;101787.50;;;6.00;62.96
82668;BME280;72691;51.374;-0.176;2023-12-20T08:52:50;101782.11;;;6.21;62.48
82668;BME280;72691;51.374;-0.176;2023-12-20T08:55:15;101772.99;;;6.61;60.91
82668;BME280;72691;51.374;-0.176;2023-12-20T08:57:40;101775.67;;;6.28;61.86
82668;BME280;72691;51.374;-0.176;2023-12-20T09:00:07;101768.44;;;6.33;62.34
82668;BME280;72691;51.374;-0.176;2023-12-20T09:02:31;101768.35;;;7.15;60.21
82668;BME280;72691;51.374;-0.176;2023-12-20T09:04:57;101773.50;;;5.97;63.13
82668;BME280;72691;51.374;-0.176;2023-12-20T09:07:23;101775.94;;;5.83;63.48
82668;BME280;72691;51.374;-0.176;2023-12-20T09:09:48;101764.52;;;6.16;63.64
82668;BME280;72691;51.374;-0.176;2023-12-20T09:12:14;101752.94;;;6.64;61.14
82668;BME280;72691;51.374;-0.176;2023-12-20T09:14:39;101756.59;;;6.64;62.50
82668;BME280;72691;51.374;-0.176;2023-12-20T09:17:04;101758.93;;;6.28;63.03
82668;BME280;72691;51.374;-0.176;2023-12-20T09:19:30;101760.89;;;6.99;60.68
82668;BME280;72691;51.374;-0.176;2023-12-20T09:21:55;101758.74;;;7.57;59.17
82668;BME280;72691;51.374;-0.176;2023-12-20T09:24:21;101759.04;;;7.30;59.46
82668;BME280;72691;51.374;-0.176;2023-12-20T09:26:46;101760.99;;;7.91;58.48
82668;BME280;72691;51.374;-0.176;2023-12-20T09:29:12;101766.24;;;7.22;59.07
82668;BME280;72691;51.374;-0.176;2023-12-20T09:31:37;101755.92;;;6.92;60.31
82668;BME280;72691;51.374;-0.176;2023-12-20T09:34:03;101757.07;;;7.59;59.79
82668;BME280;72691;51.374;-0.176;2023-12-20T09:36:28;101757.56;;;8.00;58.17
82668;BME280;72691;51.374;-0.176;2023-12-20T09:38:53;101756.49;;;8.37;58.32
82668;BME280;72691;51.374;-0.176;2023-12-20T09:41:19;101756.96;;;7.97;58.66
82668;BME280;72691;51.374;-0.176;2023-12-20T09:43:44;101763.50;;;7.83;60.02
82668;BME280;72691;51.374;-0.176;2023-12-20T09:46:12;101766.71;;;8.53;58.09
82668;BME280;72691;51.374;-0.176;2023-12-20T09:48:36;101766.97;;;8.68;57.65
82668;BME280;72691;51.374;-0.176;2023-12-20T09:51:01;101770.59;;;8.16;57.54
82668;BME280;72691;51.374;-0.176;2023-12-20T09:53:26;101779.60;;;7.76;59.69
82668;BME280;72691;51.374;-0.176;2023-12-20T09:55:52;101778.38;;;7.21;61.14
82668;BME280;72691;51.374;-0.176;2023-12-20T09:58:17;101776.95;;;7.72;59.69
82668;BME280;72691;51.374;-0.176;2023-12-20T10:00:42;101790.93;;;7.64;59.64
82668;BME280;72691;51.374;-0.176;2023-12-20T10:03:08;101780.83;;;7.74;60.26
82668;BME280;72691;51.374;-0.176;2023-12-20T10:05:34;101764.77;;;7.79;59.43
82668;BME280;72691;51.374;-0.176;2023-12-20T10:07:59;101764.32;;;7.26;60.96
82668;BME280;72691;51.374;-0.176;2023-12-20T10:10:24;101756.97;;;7.35;61.11
82668;BME280;72691;51.374;-0.176;2023-12-20T10:15:19;101752.15;;;7.53;62.15
82668;BME280;72691;51.374;-0.176;2023-12-20T10:17:39;101761.07;;;7.39;62.12
82668;BME280;72691;51.374;-0.176;2023-12-20T10:20:06;101756.58;;;7.11;62.35
82668;BME280;72691;51.374;-0.176;2023-12-20T10:22:32;101761.18;;;7.73;61.02
82668;BME280;72691;51.374;-0.176;2023-12-20T10:24:56;101751.06;;;7.57;60.76
82668;BME280;72691;51.374;-0.176;2023-12-20T10:27:22;101753.45;;;7.00;62.68
82668;BME280;72691;51.374;-0.176;2023-12-20T10:29:47;101749.12;;;7.53;61.50
82668;BME280;72691;51.374;-0.176;2023-12-20T10:32:24;101745.00;;;7.67;59.88
82668;BME280;72691;51.374;-0.176;2023-12-20T10:34:38;101755.76;;;7.69;60.78
82668;BME280;72691;51.374;-0.176;2023-12-20T10:37:03;101751.35;;;7.32;62.96
82668;BME280;72691;51.374;-0.176;2023-12-20T10:39:29;101745.59;;;7.24;62.54
82668;BME280;72691;51.374;-0.176;2023-12-20T10:41:54;101737.45;;;7.95;61.95
82668;BME280;72691;51.374;-0.176;2023-12-20T10:44:20;101737.76;;;7.95;60.23
82668;BME280;72691;51.374;-0.176;2023-12-20T10:46:45;101745.35;;;8.10;59.48
82668;BME280;72691;51.374;-0.176;2023-12-20T10:49:10;101740.90;;;8.34;59.58
82668;BME280;72691;51.374;-0.176;2023-12-20T10:51:36;101742.21;;;7.63;60.19
82668;BME280;72691;51.374;-0.176;2023-12-20T10:54:01;101730.10;;;8.22;59.54
82668;BME280;72691;51.374;-0.176;2023-12-20T10:56:32;101726.05;;;8.28;59.83
82668;BME280;72691;51.374;-0.176;2023-12-20T10:58:52;101726.75;;;8.28;59.97
82668;BME280;72691;51.374;-0.176;2023-12-20T11:01:18;101722.31;;;8.28;58.53
82668;BME280;72691;51.374;-0.176;2023-12-20T11:03:46;101718.77;;;8.00;59.81
82668;BME280;72691;51.374;-0.176;2023-12-20T11:06:20;101710.69;;;7.97;59.63
82668;BME280;72691;51.374;-0.176;2023-12-20T11:08:38;101698.93;;;8.35;59.55
82668;BME280;72691;51.374;-0.176;2023-12-20T11:11:04;101698.21;;;8.49;59.41
82668;BME280;72691;51.374;-0.176;2023-12-20T11:13:31;101697.38;;;7.77;60.58
82668;BME280;72691;51.374;-0.176;2023-12-20T11:15:50;101695.58;;;7.93;61.20
82668;BME280;72691;51.374;-0.176;2023-12-20T11:18:15;101685.07;;;8.04;59.97
82668;BME280;72691;51.374;-0.176;2023-12-20T11:20:42;101681.32;;;7.99;61.05
82668;BME280;72691;51.374;-0.176;2023-12-20T11:23:06;101678.31;;;7.74;60.91
82668;BME280;72691;51.374;-0.176;2023-12-20T11:25:46;101675.24;;;7.37;62.41
82668;BME280;72691;51.374;-0.176;2023-12-20T11:28:08;101669.47;;;7.84;62.80
82668;BME280;72691;51.374;-0.176;2023-12-20T11:32:48;101660.56;;;7.35;62.87
82668;BME280;72691;51.374;-0.176;2023-12-20T11:35:19;101653.77;;;7.65;62.73
82668;BME280;72691;51.374;-0.176;2023-12-20T11:37:40;101649.78;;;7.34;63.86
82668;BME280;72691;51.374;-0.176;2023-12-20T11:40:06;101638.67;;;7.19;63.99
82668;BME280;72691;51.374;-0.176;2023-12-20T11:42:33;101640.20;;;8.73;61.56
82668;BME280;72691;51.374;-0.176;2023-12-20T11:44:56;101636.96;;;8.14;61.71
82668;BME280;72691;51.374;-0.176;2023-12-20T11:47:20;101626.96;;;8.29;61.43
82668;BME280;72691;51.374;-0.176;2023-12-20T11:49:48;101620.35;;;8.20;60.16
82668;BME280;72691;51.374;-0.176;2023-12-20T11:52:12;101618.69;;;8.35;60.63
82668;BME280;72691;51.374;-0.176;2023-12-20T11:54:36;101619.54;;;8.37;60.59
82668;BME280;72691;51.374;-0.176;2023-12-20T11:57:02;101621.78;;;7.91;61.19
82668;BME280;72691;51.374;-0.176;2023-12-20T11:59:27;101600.43;;;8.13;61.30
82668;BME280;72691;51.374;-0.176;2023-12-20T12:01:53;101593.81;;;8.15;61.57
82668;BME280;72691;51.374;-0.176;2023-12-20T12:04:21;101586.34;;;8.17;60.55
82668;BME280;72691;51.374;-0.176;2023-12-20T12:06:43;101579.75;;;8.23;60.71
82668;BME280;72691;51.374;-0.176;2023-12-20T12:09:09;101579.63;;;8.74;59.92
82668;BME280;72691;51.374;-0.176;2023-12-20T12:11:34;101576.29;;;7.91;61.82
82668;BME280;72691;51.374;-0.176;2023-12-20T12:14:00;101582.12;;;7.95;62.39
82668;BME280;72691;51.374;-0.176;2023-12-20T12:16:25;101576.93;;;7.75;63.42
82668;BME280;72691;51.374;-0.176;2023-12-20T12:18:55;101565.81;;;7.97;61.95
82668;BME280;72691;51.374;-0.176;2023-12-20T12:21:19;101559.28;;;8.70;60.94
82668;BME280;72691;51.374;-0.176;2023-12-20T12:23:41;101558.32;;;8.47;60.70
82668;BME280;72691;51.374;-0.176;2023-12-20T12:26:06;101561.47;;;8.45;60.30
82668;BME280;72691;51.374;-0.176;2023-12-20T12:28:31;101570.90;;;8.52;60.76
82668;BME280;72691;51.374;-0.176;2023-12-20T12:30:57;101553.53;;;9.37;59.03
82668;BME280;72691;51.374;-0.176;2023-12-20T12:33:22;101556.30;;;8.84;59.46
82668;BME280;72691;51.374;-0.176;2023-12-20T12:35:48;101561.34;;;9.24;58.91
82668;BME280;72691;51.374;-0.176;2023-12-20T12:38:13;101547.92;;;9.23;58.47
82668;BME280;72691;51.374;-0.176;2023-12-20T12:40:39;101532.12;;;9.40;58.53
82668;BME280;72691;51.374;-0.176;2023-12-20T12:43:04;101532.72;;;9.27;58.34
82668;BME280;72691;51.374;-0.176;2023-12-20T12:45:29;101531.26;;;9.26;58.97